Time;durP1;ratioP1;P1;durP2;ratioP2;P2;SDS_P1;SDS_P2;PMS_P1;PMS_P2;Temp;Humidity;BMP_temperature;BMP_pressure;BME280_temperature;BME280_humidity;BME280_pressure;Samples;Min_cycle;Max_cycle;Signal;HPM_P1;HPM_P2
2022/08/30 00:01:04;;;;;;;15.88;5.37;;;;;;;24.66;57.72;101109.53;1775835;80;26609;-64
2022/08/30 00:03:44;;;;;;;15.28;5.42;;;;;;;24.56;58.59;101114.15;1775719;80;25868;-64
2022/08/30 00:06:13;;;;;;;13.48;5.50;;;;;;;24.48;59.86;101108.91;1775476;80;26027;-62
2022/08/30 00:08:42;;;;;;;14.58;5.80;;;;;;;24.31;62.65;101105.83;1775638;80;27586;-63
2022/08/30 00:11:13;;;;;;;18.48;5.05;;;;;;;24.17;63.21;101105.05;1775374;80;25773;-63
2022/08/30 00:13:43;;;;;;;16.00;4.60;;;;;;;24.02;63.32;101102.06;1775841;79;25960;-63
2022/08/30 00:16:12;;;;;;;12.80;4.97;;;;;;;23.88;63.83;101096.28;1774903;80;25547;-63
2022/08/30 00:18:40;;;;;;;10.78;4.97;;;;;;;23.72;64.58;101103.09;1775580;80;25730;-62
2022/08/30 00:21:08;;;;;;;12.63;4.95;;;;;;;23.56;63.94;101104.39;1775999;80;27557;-62
2022/08/30 00:23:35;;;;;;;26.60;5.33;;;;;;;23.49;63.75;101115.92;1770883;80;25802;-62
2022/08/30 00:26:04;;;;;;;9.68;4.62;;;;;;;23.46;63.34;101125.44;1775621;79;25611;-63
2022/08/30 00:28:32;;;;;;;17.85;4.87;;;;;;;23.50;63.37;101126.68;1775590;80;25670;-63
2022/08/30 00:31:01;;;;;;;11.63;5.25;;;;;;;23.53;64.10;101122.69;1775660;80;25791;-64
2022/08/30 00:33:29;;;;;;;12.75;4.70;;;;;;;23.48;64.61;101116.98;1769833;80;27110;-63
2022/08/30 00:35:56;;;;;;;20.55;5.10;;;;;;;23.39;64.30;101108.97;1767152;80;25649;-63
2022/08/30 00:38:23;;;;;;;9.90;4.62;;;;;;;23.37;64.25;101102.84;1767528;81;25752;-63
2022/08/30 00:40:52;;;;;;;21.97;5.00;;;;;;;23.33;65.09;101091.13;1774221;80;25793;-63
2022/08/30 00:43:24;;;;;;;27.02;5.08;;;;;;;23.27;64.71;101084.58;1767532;79;25934;-62
2022/08/30 00:45:52;;;;;;;11.63;4.37;;;;;;;23.26;65.64;101082.38;1761896;81;28426;-62
2022/08/30 00:48:19;;;;;;;9.18;4.53;;;;;;;23.26;65.08;101089.24;1761671;80;25714;-63
2022/08/30 00:50:52;;;;;;;10.18;4.72;;;;;;;23.27;64.90;101099.68;1761664;81;25841;-62
2022/08/30 00:53:24;;;;;;;9.75;4.05;;;;;;;23.24;64.38;101110.56;1770194;80;26347;-63
2022/08/30 00:55:53;;;;;;;24.63;4.70;;;;;;;23.24;64.49;101119.34;1774848;80;25726;-63
2022/08/30 00:58:24;;;;;;;15.63;4.60;;;;;;;23.24;64.11;101120.71;1775715;79;27602;-62
2022/08/30 01:00:56;;;;;;;9.45;4.22;;;;;;;23.22;63.96;101121.44;1775474;79;25711;-63
2022/08/30 01:03:23;;;;;;;12.88;4.22;;;;;;;23.16;63.81;101128.59;1770775;80;25527;-63
2022/08/30 01:05:51;;;;;;;10.48;4.40;;;;;;;23.05;63.53;101134.70;1767125;81;25784;-62
2022/08/30 01:08:24;;;;;;;9.38;3.80;;;;;;;22.82;63.31;101135.96;1767514;81;26117;-62
2022/08/30 01:10:51;;;;;;;10.00;3.72;;;;;;;22.55;63.86;101146.88;1766503;81;27482;-63
2022/08/30 01:13:21;;;;;;;11.10;4.05;;;;;;;22.32;64.19;101138.43;1771981;80;25936;-62
2022/08/30 01:15:49;;;;;;;5.85;4.08;;;;;;;22.11;65.68;101148.99;1775513;80;25698;-62
2022/08/30 01:18:17;;;;;;;9.83;3.83;;;;;;;21.93;65.53;101151.42;1775482;80;25726;-63
2022/08/30 01:20:49;;;;;;;9.20;4.25;;;;;;;21.82;66.46;101153.72;1775522;80;25808;-62
2022/08/30 01:23:20;;;;;;;9.90;4.25;;;;;;;21.71;66.61;101155.09;1772028;80;27414;-62
2022/08/30 01:25:49;;;;;;;11.22;4.37;;;;;;;21.64;67.23;101155.59;1775440;79;25781;-63
2022/08/30 01:28:26;;;;;;;15.53;4.20;;;;;;;21.56;67.74;101156.55;1775718;79;25651;-63
2022/08/30 01:30:53;;;;;;;12.28;4.33;;;;;;;21.50;67.53;101151.05;1775645;80;26455;-63
2022/08/30 01:33:21;;;;;;;6.65;4.17;;;;;;;21.47;67.72;101156.38;1770894;79;25965;-62
2022/08/30 01:35:56;;;;;;;6.80;3.85;;;;;;;21.45;67.60;101157.62;1767043;81;27090;-62
2022/08/30 01:38:36;;;;;;;13.45;4.67;;;;;;;21.42;68.34;101162.98;1767043;81;25765;-62
2022/08/30 01:41:12;;;;;;;18.23;4.28;;;;;;;21.40;68.09;101168.66;1770400;80;25866;-62
2022/08/30 01:43:40;;;;;;;7.80;4.25;;;;;;;21.40;68.20;101163.69;1769584;80;25713;-62
2022/08/30 01:46:10;;;;;;;9.03;5.00;;;;;;;21.37;68.73;101171.78;1767061;81;25497;-63
2022/08/30 01:48:39;;;;;;;12.40;4.58;;;;;;;21.35;68.86;101169.76;1767323;81;27482;-63
2022/08/30 01:51:13;;;;;;;6.97;4.42;;;;;;;21.36;68.84;101167.89;1766981;81;25782;-63
2022/08/30 01:53:43;;;;;;;12.82;4.20;;;;;;;21.38;68.71;101165.80;1772613;80;25880;-63
2022/08/30 01:56:11;;;;;;;12.55;5.05;;;;;;;21.42;68.15;101174.79;1775521;80;26281;-63
2022/08/30 01:58:39;;;;;;;9.45;5.00;;;;;;;21.44;68.57;101185.53;1775822;79;26110;-62
2022/08/30 02:01:12;;;;;;;8.23;5.83;;;;;;;21.47;68.87;101180.17;1775535;80;28293;-63
2022/08/30 02:03:41;;;;;;;9.68;5.83;;;;;;;21.47;69.21;101185.11;1770560;80;25816;-62
2022/08/30 02:06:13;;;;;;;14.13;6.00;;;;;;;21.39;70.14;101183.89;1766986;81;25718;-62
2022/08/30 02:08:40;;;;;;;12.93;6.58;;;;;;;21.35;70.15;101190.81;1767457;81;26441;-62
2022/08/30 02:11:09;;;;;;;16.73;6.62;;;;;;;21.31;70.97;101190.38;1767176;81;25948;-63
2022/08/30 02:13:38;;;;;;;11.53;6.00;;;;;;;21.26;70.87;101186.86;1772455;80;28464;-62
2022/08/30 02:16:09;;;;;;;20.43;6.97;;;;;;;21.28;70.50;101181.72;1733563;80;26208;-62
2022/08/30 02:18:38;;;;;;;13.45;6.72;;;;;;;21.26;70.81;101175.91;1731034;81;25736;-63
2022/08/30 02:21:07;;;;;;;16.37;6.97;;;;;;;21.25;70.82;101182.93;1731092;81;25672;-63
2022/08/30 02:23:36;;;;;;;16.67;7.50;;;;;;;21.22;70.92;101188.81;1756534;79;25838;-63
2022/08/30 02:26:04;;;;;;;14.45;7.50;;;;;;;21.21;71.16;101189.86;1771301;81;27465;-63
2022/08/30 02:28:32;;;;;;;16.80;7.65;;;;;;;21.25;70.98;101194.73;1771045;81;25770;-63
2022/08/30 02:30:59;;;;;;;24.63;7.90;;;;;;;21.24;71.15;101197.14;1771212;81;25781;-64
2022/08/30 02:33:26;;;;;;;19.62;8.45;;;;;;;21.23;70.99;101192.71;1777977;80;25668;-63
2022/08/30 02:35:52;;;;;;;22.55;9.58;;;;;;;21.20;71.65;101197.20;1784113;80;25796;-63
2022/08/30 02:38:19;;;;;;;20.75;9.00;;;;;;;21.19;71.51;101198.27;1784249;79;28263;-63
2022/08/30 02:40:46;;;;;;;30.05;9.73;;;;;;;21.14;71.91;101197.99;1773872;80;25663;-62
2022/08/30 02:43:14;;;;;;;21.07;9.13;;;;;;;21.11;71.67;101199.77;1776332;80;25723;-63
2022/08/30 02:45:42;;;;;;;15.93;8.15;;;;;;;21.10;71.86;101198.91;1784384;80;25504;-64
2022/08/30 02:48:09;;;;;;;13.62;7.80;;;;;;;21.16;71.86;101198.66;1784067;80;25722;-64
2022/08/30 02:50:42;;;;;;;19.12;6.75;;;;;;;21.23;71.75;101194.08;1784416;80;28319;-63
2022/08/30 02:53:09;;;;;;;14.00;7.03;;;;;;;21.31;71.65;101197.72;1778872;80;26030;-64
2022/08/30 02:55:36;;;;;;;11.57;6.47;;;;;;;21.34;72.08;101198.16;1708186;84;25786;-64
2022/08/30 02:58:03;;;;;;;16.60;8.05;;;;;;;21.35;71.12;101196.30;1708201;84;25718;-64
2022/08/30 03:00:30;;;;;;;20.88;9.65;;;;;;;21.39;71.01;101204.41;1708211;84;25814;-63
2022/08/30 03:02:58;;;;;;;17.52;9.80;;;;;;;21.42;71.18;101205.40;1711510;83;28337;-64
2022/08/30 03:05:26;;;;;;;24.12;11.22;;;;;;;21.35;70.90;101203.13;1720415;82;25771;-64
2022/08/30 03:07:53;;;;;;;17.48;10.50;;;;;;;21.28;70.98;101201.70;1736549;82;25832;-64
2022/08/30 03:10:19;;;;;;;19.92;10.18;;;;;;;21.25;71.33;101204.81;1736673;82;25780;-64
2022/08/30 03:12:47;;;;;;;23.22;10.68;;;;;;;21.25;71.56;101211.66;1736416;82;26100;-64
2022/08/30 03:15:15;;;;;;;16.73;9.88;;;;;;;21.28;71.94;101207.70;1739928;82;27104;-64
2022/08/30 03:17:42;;;;;;;15.55;9.38;;;;;;;21.32;71.66;101210.36;1783757;80;25710;-64
2022/08/30 03:20:11;;;;;;;21.12;10.15;;;;;;;21.36;71.71;101214.41;1784250;80;25915;-64
2022/08/30 03:22:39;;;;;;;26.65;10.18;;;;;;;21.36;71.50;101215.78;1782627;80;25512;-64
2022/08/30 03:25:08;;;;;;;27.85;10.53;;;;;;;21.34;70.99;101219.22;1787127;80;25741;-63
2022/08/30 03:27:35;;;;;;;19.90;10.80;;;;;;;21.38;70.82;101219.17;1793121;79;27456;-63
2022/08/30 03:30:05;;;;;;;26.20;11.35;;;;;;;21.39;70.72;101218.96;1795678;79;25792;-64
2022/08/30 03:32:32;;;;;;;22.75;10.72;;;;;;;21.42;70.88;101224.55;1794442;79;25737;-62
2022/08/30 03:34:59;;;;;;;18.62;11.65;;;;;;;21.44;71.20;101219.73;1793999;80;25733;-62
2022/08/30 03:37:27;;;;;;;26.33;11.25;;;;;;;21.43;70.78;101217.51;1793894;80;25429;-63
2022/08/30 03:39:55;;;;;;;26.25;11.35;;;;;;;21.45;70.63;101217.83;1793650;79;28200;-62
2022/08/30 03:42:23;;;;;;;22.10;11.55;;;;;;;21.36;70.55;101217.98;1793620;80;25473;-63
2022/08/30 03:44:50;;;;;;;20.55;10.98;;;;;;;21.26;70.74;101221.56;1769740;81;25476;-62
2022/08/30 03:47:17;;;;;;;25.45;12.90;;;;;;;21.19;71.25;101227.00;1756555;81;26291;-62
2022/08/30 03:49:44;;;;;;;22.65;11.70;;;;;;;21.16;71.50;101223.27;1769814;81;25733;-62
2022/08/30 03:52:11;;;;;;;20.35;11.38;;;;;;;21.17;71.49;101226.34;1789590;80;28086;-63
2022/08/30 03:54:39;;;;;;;22.37;12.33;;;;;;;21.21;71.55;101223.52;1794804;79;25760;-63
2022/08/30 03:57:06;;;;;;;19.67;12.00;;;;;;;21.24;71.44;101219.03;1795981;79;25824;-63
2022/08/30 03:59:34;;;;;;;20.20;12.20;;;;;;;21.31;71.52;101227.81;1795390;79;25734;-62
2022/08/30 04:02:01;;;;;;;23.77;11.18;;;;;;;21.34;71.57;101231.53;1795448;79;25761;-63
2022/08/30 04:04:28;;;;;;;17.23;11.05;;;;;;;21.37;71.48;101229.78;1794100;79;27064;-63
2022/08/30 04:06:55;;;;;;;20.82;12.58;;;;;;;21.35;71.23;101224.48;1793905;80;25784;-62
2022/08/30 04:09:23;;;;;;;20.65;11.97;;;;;;;21.38;71.34;101225.47;1793670;80;25485;-64
2022/08/30 04:11:50;;;;;;;19.12;11.68;;;;;;;21.44;71.42;101226.58;1793697;80;25774;-62
2022/08/30 04:14:18;;;;;;;21.55;12.07;;;;;;;21.47;71.07;101233.55;1794869;79;25913;-62
2022/08/30 04:16:45;;;;;;;19.07;11.70;;;;;;;21.46;71.06;101232.71;1795542;79;27556;-63
2022/08/30 04:19:12;;;;;;;17.85;12.00;;;;;;;21.44;71.13;101230.69;1795379;79;26086;-63
2022/08/30 04:21:39;;;;;;;25.52;12.90;;;;;;;21.42;71.03;101228.16;1795675;78;26409;-63
2022/08/30 04:24:07;;;;;;;28.45;11.90;;;;;;;21.48;71.11;101234.70;1794791;79;25726;-64
2022/08/30 04:26:34;;;;;;;28.77;13.08;;;;;;;21.55;71.26;101238.88;1792425;80;26013;-63
2022/08/30 04:29:01;;;;;;;27.73;13.32;;;;;;;21.62;70.90;101241.17;1792576;80;28497;-62
2022/08/30 04:31:28;;;;;;;21.15;12.78;;;;;;;21.67;71.16;101250.16;1792608;78;25630;-64
2022/08/30 04:33:55;;;;;;;18.80;12.58;;;;;;;21.67;71.13;101247.42;1791705;80;25715;-63
2022/08/30 04:36:23;;;;;;;21.33;12.73;;;;;;;21.54;71.58;101248.99;1790893;80;25782;-62
2022/08/30 04:38:50;;;;;;;23.90;12.68;;;;;;;21.41;71.76;101251.59;1790713;78;25940;-65
2022/08/30 04:41:23;;;;;;;20.37;13.60;;;;;;;21.34;72.58;101254.27;1811505;78;27457;-62
2022/08/30 04:43:49;;;;;;;22.87;12.93;;;;;;;21.23;73.46;101250.70;1801681;77;25670;-62
2022/08/30 04:46:17;;;;;;;23.75;12.47;;;;;;;21.17;73.27;101247.36;1792997;80;25805;-62
2022/08/30 04:48:45;;;;;;;28.40;13.03;;;;;;;21.12;74.04;101241.10;1792610;80;26379;-63
2022/08/30 04:51:16;;;;;;;24.57;13.70;;;;;;;21.11;73.96;101243.55;1792896;80;25790;-63
2022/08/30 04:53:44;;;;;;;25.68;15.23;;;;;;;21.14;74.04;101246.40;1791622;80;27655;-63
2022/08/30 04:56:16;;;;;;;26.02;14.73;;;;;;;21.15;73.69;101244.83;1791150;80;25793;-63
2022/08/30 04:58:46;;;;;;;28.23;13.70;;;;;;;21.23;73.41;101244.70;1789968;80;25761;-63
2022/08/30 05:01:23;;;;;;;30.62;13.30;;;;;;;21.36;73.69;101252.72;1791276;80;25706;-63
2022/08/30 05:03:51;;;;;;;22.10;12.58;;;;;;;21.45;73.24;101258.38;1791565;78;25805;-62
2022/08/30 05:06:19;;;;;;;26.60;12.47;;;;;;;21.56;73.01;101249.61;1792704;80;27509;-63
2022/08/30 05:08:47;;;;;;;26.82;12.45;;;;;;;21.66;72.75;101255.30;1792384;80;25943;-63
2022/08/30 05:11:16;;;;;;;29.57;14.10;;;;;;;21.76;72.89;101253.61;1793062;78;25829;-63
2022/08/30 05:13:43;;;;;;;17.50;12.55;;;;;;;21.79;72.46;101259.53;1789178;80;25758;-63
2022/08/30 05:16:16;;;;;;;25.10;13.50;;;;;;;21.86;72.23;101259.59;1786312;80;25797;-63
2022/08/30 05:18:40;;;;;;;18.95;11.97;;;;;;;21.87;71.85;101261.29;1782416;78;28248;-63
2022/08/30 05:21:12;;;;;;;20.68;12.88;;;;;;;21.88;71.75;101262.95;1759585;81;25640;-63
2022/08/30 05:23:40;;;;;;;19.40;12.65;;;;;;;21.97;71.68;101271.88;1771910;80;25738;-61
2022/08/30 05:26:14;;;;;;;21.05;12.60;;;;;;;22.05;71.50;101275.30;1780749;79;26201;-61
2022/08/30 05:28:43;;;;;;;17.32;12.70;;;;;;;22.16;71.32;101273.05;1775718;80;25746;-61
2022/08/30 05:31:17;;;;;;;26.68;11.85;;;;;;;22.23;71.06;101273.09;1775596;79;27457;-61
2022/08/30 05:33:46;;;;;;;22.65;12.07;;;;;;;22.32;70.85;101282.84;1779539;80;25743;-62
2022/08/30 05:36:15;;;;;;;23.67;11.93;;;;;;;22.40;70.60;101279.97;1786667;80;25877;-61
2022/08/30 05:38:43;;;;;;;23.45;11.43;;;;;;;22.45;70.51;101277.48;1786431;80;26315;-62
2022/08/30 05:41:10;;;;;;;23.27;11.60;;;;;;;22.49;70.32;101280.13;1785007;80;25773;-62
2022/08/30 05:43:39;;;;;;;15.18;10.60;;;;;;;22.53;69.95;101276.99;1783393;80;27684;-60
2022/08/30 05:46:10;;;;;;;21.15;11.35;;;;;;;22.56;69.80;101282.05;1756573;80;25761;-63
2022/08/30 05:48:38;;;;;;;18.05;10.95;;;;;;;22.62;69.76;101283.99;1755948;81;25726;-61
2022/08/30 05:51:13;;;;;;;19.45;11.33;;;;;;;22.68;69.65;101294.14;1758090;80;25756;-62
2022/08/30 05:53:41;;;;;;;20.97;10.20;;;;;;;22.73;69.31;101287.50;1764030;80;26233;-62
2022/08/30 05:56:12;;;;;;;17.25;11.28;;;;;;;22.75;69.09;101284.58;1766584;80;27461;-62
2022/08/30 05:58:40;;;;;;;25.05;10.50;;;;;;;22.80;69.10;101292.52;1770800;80;25797;-62
2022/08/30 06:01:08;;;;;;;16.75;11.70;;;;;;;22.87;68.92;101292.52;1775278;80;26082;-62
2022/08/30 06:03:35;;;;;;;19.05;10.75;;;;;;;22.91;68.59;101289.70;1740587;81;26454;-62
2022/08/30 06:06:02;;;;;;;20.75;10.58;;;;;;;22.93;68.44;101293.09;1761955;81;25975;-62
2022/08/30 06:08:29;;;;;;;21.30;10.75;;;;;;;23.02;68.26;101306.62;1754089;80;27471;-63
2022/08/30 06:10:57;;;;;;;14.60;10.00;;;;;;;23.10;68.31;101308.63;1743706;82;25802;-62
2022/08/30 06:13:24;;;;;;;19.52;10.55;;;;;;;23.19;68.43;101299.73;1767853;79;25786;-62
2022/08/30 06:15:51;;;;;;;21.85;10.53;;;;;;;23.24;68.81;101298.56;1774943;80;25744;-63
2022/08/30 06:18:18;;;;;;;19.55;10.93;;;;;;;23.26;68.18;101290.98;1776314;79;26109;-63
2022/08/30 06:20:50;;;;;;;18.15;10.23;;;;;;;23.33;68.00;101292.38;1777340;79;26897;-63
2022/08/30 06:23:17;;;;;;;17.30;9.78;;;;;;;23.37;67.75;101302.41;1773592;79;25725;-63
2022/08/30 06:25:45;;;;;;;17.92;9.95;;;;;;;23.44;67.63;101299.97;1772119;80;26600;-61
2022/08/30 06:28:12;;;;;;;17.57;10.28;;;;;;;23.49;67.10;101302.63;1768732;80;26384;-62
2022/08/30 06:30:42;;;;;;;16.55;10.08;;;;;;;23.55;66.98;101308.64;1759937;81;25879;-62
2022/08/30 06:33:10;;;;;;;20.25;12.37;;;;;;;23.60;66.98;101307.50;1766372;81;27548;-62
2022/08/30 06:35:37;;;;;;;28.70;18.15;;;;;;;23.66;66.85;101306.66;1755734;81;25794;-61
2022/08/30 06:38:04;;;;;;;23.38;13.08;;;;;;;23.75;66.86;101315.00;1772586;80;26505;-61
2022/08/30 06:40:31;;;;;;;25.32;12.80;;;;;;;23.84;66.44;101306.55;1772519;80;25810;-63
2022/08/30 06:42:59;;;;;;;13.93;10.23;;;;;;;23.92;66.24;101307.70;1762818;80;25764;-62
2022/08/30 06:45:26;;;;;;;16.07;10.55;;;;;;;24.00;66.31;101299.27;1768217;80;27537;-62
2022/08/30 06:47:52;;;;;;;16.73;10.38;;;;;;;24.06;65.78;101301.70;1767371;80;25784;-62
2022/08/30 06:50:19;;;;;;;16.15;9.70;;;;;;;24.07;65.41;101308.89;1761521;80;25750;-62
2022/08/30 06:52:47;;;;;;;14.63;9.13;;;;;;;24.07;65.58;101301.48;1766822;79;25877;-63
2022/08/30 06:55:16;;;;;;;14.47;10.00;;;;;;;24.15;65.42;101308.67;1768475;80;25692;-62
2022/08/30 06:57:44;;;;;;;18.40;9.45;;;;;;;24.21;65.23;101306.43;1772710;80;27523;-63
2022/08/30 07:00:15;;;;;;;14.25;9.58;;;;;;;24.29;64.89;101309.48;1772401;80;25773;-62
2022/08/30 07:02:42;;;;;;;17.80;9.50;;;;;;;24.40;64.16;101307.98;1766129;80;25803;-63
2022/08/30 07:05:10;;;;;;;15.90;9.68;;;;;;;24.46;64.21;101314.01;1765681;80;25745;-63
2022/08/30 07:07:38;;;;;;;16.67;9.33;;;;;;;24.57;64.04;101319.36;1770057;80;25794;-63
2022/08/30 07:10:07;;;;;;;16.40;9.10;;;;;;;24.68;63.65;101313.74;1759697;80;27432;-63
2022/08/30 07:12:36;;;;;;;14.33;9.00;;;;;;;24.84;62.78;101313.25;1760557;80;25978;-62
2022/08/30 07:15:05;;;;;;;17.98;9.45;;;;;;;24.97;62.12;101308.21;1772687;80;25691;-62
2022/08/30 07:20:20;;;;;;;16.45;9.28;;;;;;;25.19;61.36;101309.27;1767649;80;26606;-64
2022/08/30 07:22:48;;;;;;;13.30;9.05;;;;;;;25.30;60.87;101310.47;1772482;80;28289;-62
2022/08/30 07:25:16;;;;;;;14.95;9.18;;;;;;;25.40;60.50;101310.03;1758894;80;25978;-63
2022/08/30 07:27:44;;;;;;;18.77;9.40;;;;;;;25.53;60.51;101311.30;1758599;81;25766;-64
2022/08/30 07:30:12;;;;;;;20.55;9.90;;;;;;;25.65;60.13;101310.59;1758604;81;25818;-63
2022/08/30 07:32:40;;;;;;;13.58;9.05;;;;;;;25.76;60.06;101314.83;1758364;81;25739;-63
2022/08/30 07:35:08;;;;;;;14.05;9.48;;;;;;;25.89;59.31;101313.88;1756824;81;27497;-62
2022/08/30 07:37:35;;;;;;;24.60;8.85;;;;;;;26.02;58.70;101317.04;1765567;80;25806;-63
2022/08/30 07:40:05;;;;;;;13.43;8.85;;;;;;;26.11;58.74;101313.50;1769807;80;25812;-62
2022/08/30 07:42:33;;;;;;;14.20;9.23;;;;;;;26.23;58.38;101314.42;1773412;80;26280;-62
2022/08/30 07:45:01;;;;;;;13.35;8.20;;;;;;;26.37;58.12;101318.44;1774036;80;26086;-63
2022/08/30 07:47:28;;;;;;;10.08;8.30;;;;;;;26.45;57.87;101313.99;1773914;80;27615;-63
2022/08/30 07:49:55;;;;;;;14.70;8.30;;;;;;;26.52;57.30;101312.00;1773980;80;25758;-63
2022/08/30 07:52:22;;;;;;;12.40;8.50;;;;;;;26.59;57.03;101313.83;1767877;80;25829;-63
2022/08/30 07:54:48;;;;;;;20.00;8.85;;;;;;;26.71;56.82;101321.13;1765718;81;27613;-62
2022/08/30 07:57:15;;;;;;;15.45;8.85;;;;;;;26.84;56.34;101316.02;1766006;81;25868;-62
2022/08/30 07:59:42;;;;;;;9.93;8.08;;;;;;;26.95;56.11;101325.94;1767006;80;27608;-62
2022/08/30 08:02:09;;;;;;;16.45;8.23;;;;;;;27.04;55.86;101328.69;1772680;80;25802;-61
2022/08/30 08:04:37;;;;;;;14.63;8.13;;;;;;;27.22;55.09;101324.19;1778831;78;25793;-62
2022/08/30 08:07:04;;;;;;;11.12;8.70;;;;;;;27.36;55.09;101318.80;1758470;79;25625;-63
2022/08/30 08:09:32;;;;;;;9.68;7.62;;;;;;;27.50;54.10;101329.14;1748301;82;25808;-62
2022/08/30 08:11:59;;;;;;;13.65;8.48;;;;;;;27.67;54.03;101322.38;1769797;80;27456;-62
2022/08/30 08:14:27;;;;;;;14.85;7.90;;;;;;;27.89;53.67;101321.25;1771810;80;26189;-62
2022/08/30 08:16:54;;;;;;;15.90;7.37;;;;;;;28.10;53.56;101324.03;1771824;80;25707;-62
2022/08/30 08:19:21;;;;;;;16.50;7.20;;;;;;;28.33;52.87;101314.02;1757242;80;25861;-63
2022/08/30 08:21:48;;;;;;;12.25;7.30;;;;;;;28.51;51.78;101308.86;1765452;80;25757;-63
2022/08/30 08:24:15;;;;;;;10.30;7.20;;;;;;;28.72;51.60;101314.34;1766484;80;27472;-62
2022/08/30 08:26:42;;;;;;;13.18;7.50;;;;;;;28.86;50.91;101316.29;1821068;78;25717;-63
2022/08/30 08:29:09;;;;;;;10.80;7.08;;;;;;;29.07;50.51;101316.67;1798715;78;25789;-63
2022/08/30 08:31:37;;;;;;;11.80;7.53;;;;;;;29.20;50.03;101316.91;1785411;80;26309;-63
2022/08/30 08:34:05;;;;;;;12.10;6.80;;;;;;;29.30;49.13;101310.18;1785526;80;25714;-64
2022/08/30 08:36:34;;;;;;;11.15;6.70;;;;;;;29.35;49.50;101315.01;1785339;80;27632;-63
2022/08/30 08:39:04;;;;;;;11.83;6.90;;;;;;;29.46;48.94;101314.11;1784542;79;25877;-63
2022/08/30 08:41:56;;;;;;;13.00;6.50;;;;;;;29.54;48.09;101312.84;1783691;80;25885;-62
2022/08/30 08:44:38;;;;;;;10.82;6.37;;;;;;;29.58;48.15;101308.48;1783650;80;26536;-63
2022/08/30 08:47:31;;;;;;;12.28;6.33;;;;;;;29.73;48.44;101309.82;1781300;80;26001;-62
2022/08/30 08:50:03;;;;;;;11.53;6.70;;;;;;;29.84;47.71;101304.74;1745735;81;27624;-62
2022/08/30 08:55:33;;;;;;;9.75;6.03;;;;;;;29.93;46.92;101306.03;1748195;81;25742;-64
2022/08/30 08:58:01;;;;;;;13.75;6.55;;;;;;;29.98;47.30;101297.80;1757597;81;25861;-61
2022/08/30 09:00:28;;;;;;;8.98;6.40;;;;;;;30.08;46.56;101301.80;1766168;81;25286;-62
2022/08/30 09:03:04;;;;;;;8.90;5.85;;;;;;;30.05;45.82;101296.22;1766255;81;27606;-62
2022/08/30 09:05:35;;;;;;;9.70;6.10;;;;;;;30.03;46.05;101300.34;1766204;80;26641;-62
2022/08/30 09:08:07;;;;;;;9.00;6.45;;;;;;;30.17;45.96;101291.12;1770612;80;25840;-62
2022/08/30 09:10:35;;;;;;;15.83;5.40;;;;;;;30.32;45.99;101291.32;1761298;80;26494;-62
2022/08/30 09:13:02;;;;;;;11.35;6.03;;;;;;;30.49;45.40;101288.50;1760450;81;25782;-62
2022/08/30 09:15:33;;;;;;;24.45;18.00;;;;;;;30.66;45.51;101281.51;1760417;80;27479;-63
2022/08/30 09:18:04;;;;;;;9.88;6.15;;;;;;;30.85;43.82;101284.80;1760461;81;25777;-63
2022/08/30 09:20:40;;;;;;;9.18;5.62;;;;;;;30.92;43.73;101287.38;1767805;79;25771;-63
2022/08/30 09:23:21;;;;;;;17.30;5.65;;;;;;;30.95;43.45;101282.67;1765839;80;25777;-63
2022/08/30 09:26:07;;;;;;;11.35;5.58;;;;;;;31.04;43.74;101286.66;1761354;79;25716;-65
2022/08/30 09:28:49;;;;;;;16.07;6.33;;;;;;;31.16;43.44;101280.97;1720034;81;27648;-63
2022/08/30 09:31:26;;;;;;;29.65;6.47;;;;;;;31.28;42.98;101275.81;1743327;80;25804;-63
2022/08/30 09:34:04;;;;;;;19.73;7.12;;;;;;;31.19;42.29;101277.68;1743545;80;25885;-64
2022/08/30 09:36:43;;;;;;;9.93;5.15;;;;;;;31.21;43.08;101276.88;1743903;80;25838;-62
2022/08/30 09:39:32;;;;;;;8.43;4.80;;;;;;;31.38;43.14;101278.69;1751801;80;26757;-63
2022/08/30 09:42:25;;;;;;;18.10;5.47;;;;;;;31.56;42.73;101270.48;1772848;80;28466;-63
2022/08/30 09:45:10;;;;;;;8.95;5.15;;;;;;;31.66;42.03;101273.91;1760591;81;25993;-62
2022/08/30 09:47:41;;;;;;;10.70;5.20;;;;;;;31.75;41.50;101262.61;1760472;81;25853;-63
2022/08/30 09:50:14;;;;;;;14.20;5.58;;;;;;;31.90;41.45;101256.86;1770591;80;25816;-64
2022/08/30 09:53:01;;;;;;;12.20;4.97;;;;;;;32.30;40.66;101254.88;1773912;80;25989;-62
2022/08/30 09:55:54;;;;;;;8.35;5.60;;;;;;;32.68;40.45;101244.98;1772895;80;27696;-64
2022/08/30 09:59:01;;;;;;;12.68;5.20;;;;;;;33.58;38.64;101243.47;1774553;79;25741;-63
2022/08/30 10:01:36;;;;;;;8.33;4.30;;;;;;;34.50;37.36;101231.23;1774534;80;25326;-62
2022/08/30 10:05:00;;;;;;;9.63;4.83;;;;;;;35.23;36.53;101226.05;1774651;80;25913;-62
2022/08/30 10:07:35;;;;;;;12.55;4.62;;;;;;;35.78;34.01;101217.42;1722584;81;26501;-63
2022/08/30 10:10:08;;;;;;;6.70;4.40;;;;;;;36.11;34.09;101221.83;1702228;82;27507;-62
2022/08/30 10:12:41;;;;;;;;;;;;;;;36.75;33.13;101217.92;1783441;79;25721;-63
2022/08/30 10:15:20;;;;;;;8.90;4.20;;;;;;;37.66;31.05;101211.10;1814078;79;25773;-63
2022/08/30 10:18:09;;;;;;;6.75;4.05;;;;;;;38.24;29.46;101200.39;1815402;77;25798;-63
2022/08/30 10:21:07;;;;;;;17.45;4.37;;;;;;;38.44;29.76;101203.37;1821102;78;26844;-63
2022/08/30 10:23:45;;;;;;;9.85;4.22;;;;;;;38.90;29.77;101192.22;1789740;79;28333;-63
2022/08/30 10:26:36;;;;;;;9.20;4.58;;;;;;;39.34;30.12;101198.14;1806626;78;25720;-64
2022/08/30 10:29:17;;;;;;;13.35;4.03;;;;;;;39.27;28.71;101195.78;1786141;80;26389;-63
2022/08/30 10:32:16;;;;;;;5.03;3.58;;;;;;;38.50;28.20;101191.44;1786156;80;25794;-63
2022/08/30 10:34:57;;;;;;;14.28;3.70;;;;;;;37.67;29.67;101199.29;1782086;80;25980;-63
2022/08/30 10:37:31;;;;;;;9.33;3.67;;;;;;;37.15;28.79;101202.19;1762933;80;28109;-63
2022/08/30 10:41:11;;;;;;;10.98;4.15;;;;;;;36.13;30.32;101205.56;1768448;80;25727;-63
2022/08/30 10:42:35;;;;;;;6.65;3.75;;;;;;;35.54;31.27;101202.85;1757943;81;25860;-63
2022/08/30 10:45:10;;;;;;;5.75;3.77;;;;;;;35.15;32.78;101202.87;1735914;81;26633;-62
2022/08/30 10:48:00;;;;;;;6.17;3.62;;;;;;;35.19;32.86;101206.77;1772592;80;25724;-63
2022/08/30 10:50:35;;;;;;;7.25;4.30;;;;;;;35.29;33.04;101212.83;1729574;79;27729;-62
2022/08/30 10:53:10;;;;;;;8.13;3.72;;;;;;;35.35;32.30;101206.08;1727008;81;25764;-62
2022/08/30 10:55:45;;;;;;;5.62;3.85;;;;;;;35.14;32.30;101211.84;1744175;80;25810;-62
2022/08/30 10:58:14;;;;;;;6.75;3.85;;;;;;;34.83;32.71;101204.22;1743208;81;25843;-63
2022/08/30 11:01:06;;;;;;;9.78;4.22;;;;;;;34.46;33.75;101205.02;1744151;82;26115;-63
2022/08/30 11:04:22;;;;;;;4.62;3.58;;;;;;;34.52;33.73;101199.67;1744080;81;27553;-63
2022/08/30 11:07:16;;;;;;;6.60;3.70;;;;;;;34.75;33.96;101203.72;1770133;80;25743;-63
2022/08/30 11:10:08;;;;;;;7.35;3.67;;;;;;;34.94;33.05;101202.48;1749057;81;25821;-64
2022/08/30 11:12:56;;;;;;;9.90;3.53;;;;;;;34.84;32.79;101196.11;1761250;80;25806;-64
2022/08/30 11:15:29;;;;;;;5.37;3.25;;;;;;;34.74;33.08;101191.45;1760835;81;26147;-62
2022/08/30 11:18:12;;;;;;;5.97;3.50;;;;;;;35.56;31.89;101192.75;1761031;81;28023;-63
2022/08/30 11:20:44;;;;;;;3.83;3.12;;;;;;;35.34;32.06;101193.22;1760830;81;26003;-63
2022/08/30 11:23:20;;;;;;;;;;;;;;;35.77;31.75;101186.37;1764250;80;26488;-62
2022/08/30 11:26:12;;;;;;;13.43;3.80;;;;;;;36.31;31.47;101191.31;1761805;81;25768;-63
2022/08/30 11:28:50;;;;;;;20.37;3.98;;;;;;;36.70;30.74;101185.20;1754533;80;25746;-64
2022/08/30 11:31:37;;;;;;;18.92;4.62;;;;;;;37.55;28.90;101178.75;1754021;80;27438;-63
2022/08/30 11:34:05;;;;;;;8.60;3.92;;;;;;;37.86;28.72;101169.77;1753664;81;25716;-64
2022/08/30 11:36:41;;;;;;;15.40;3.80;;;;;;;38.23;28.58;101168.41;1753773;81;26417;-64
2022/08/30 11:39:16;;;;;;;9.38;3.25;;;;;;;38.80;28.27;101160.95;1750090;81;25757;-62
2022/08/30 11:41:46;;;;;;;16.12;3.62;;;;;;;39.34;27.30;101160.15;1740710;81;25745;-64